Time;durP1;ratioP1;P1;durP2;ratioP2;P2;SDS_P1;SDS_P2;PMS_P1;PMS_P2;Temp;Humidity;BMP_temperature;BMP_pressure;BME280_temperature;BME280_humidity;BME280_pressure;Samples;Min_cycle;Max_cycle;Signal;HPM_P1;HPM_P2
2022/12/06 00:01:23;;;;;;;12.53;9.70;;;1.40;99.90;;;;;;5057269;28;20742;-65
2022/12/06 00:03:53;;;;;;;12.00;10.67;;;1.40;99.90;;;;;;5056805;28;20485;-65
2022/12/06 00:06:22;;;;;;;12.03;10.33;;;1.40;99.90;;;;;;5057358;28;20556;-65
2022/12/06 00:08:50;;;;;;;14.90;11.00;;;1.40;99.90;;;;;;5057224;28;20462;-66
2022/12/06 00:11:19;;;;;;;14.37;11.13;;;1.40;99.90;;;;;;5057218;28;20462;-65
2022/12/06 00:13:47;;;;;;;14.77;10.80;;;1.40;99.90;;;;;;5057244;28;20469;-65
2022/12/06 00:16:16;;;;;;;12.73;11.23;;;1.40;99.90;;;;;;5057009;28;20467;-65
2022/12/06 00:18:46;;;;;;;14.50;11.60;;;1.40;99.90;;;;;;5056458;28;20439;-65
2022/12/06 00:21:15;;;;;;;17.87;12.43;;;1.40;99.90;;;;;;5055381;28;20466;-65
2022/12/06 00:23:43;;;;;;;13.83;11.40;;;1.40;99.90;;;;;;5054645;28;20748;-65
2022/12/06 00:26:11;;;;;;;17.70;12.03;;;1.40;99.90;;;;;;5057646;28;20472;-65
2022/12/06 00:28:39;;;;;;;15.13;12.17;;;1.40;99.90;;;;;;5056953;28;20759;-66
2022/12/06 00:31:08;;;;;;;14.43;10.73;;;1.40;99.90;;;;;;5056899;28;20465;-65
2022/12/06 00:33:36;;;;;;;13.87;11.67;;;1.40;99.90;;;;;;5056655;28;20905;-65
2022/12/06 00:36:07;;;;;;;14.93;11.80;;;1.40;99.90;;;;;;5057172;28;20465;-65
2022/12/06 00:38:35;;;;;;;16.23;12.20;;;1.40;99.90;;;;;;5056977;28;20444;-65
2022/12/06 00:41:04;;;;;;;14.93;11.73;;;1.40;99.90;;;;;;5057040;28;20532;-65
2022/12/06 00:43:32;;;;;;;14.20;11.27;;;1.40;99.90;;;;;;5057335;28;20755;-65
2022/12/06 00:45:59;;;;;;;16.93;12.03;;;1.30;99.90;;;;;;5060576;28;20516;-65
2022/12/06 00:48:27;;;;;;;19.00;12.90;;;1.30;99.90;;;;;;5059814;28;20697;-65
2022/12/06 00:50:55;;;;;;;22.20;14.37;;;1.30;99.90;;;;;;5060006;28;20462;-65
2022/12/06 00:53:24;;;;;;;19.63;13.70;;;1.30;99.90;;;;;;5059820;28;20904;-65
2022/12/06 00:55:51;;;;;;;19.07;13.30;;;1.40;99.90;;;;;;5060857;28;20759;-65
2022/12/06 00:58:18;;;;;;;21.40;14.03;;;1.40;99.90;;;;;;5060778;28;20466;-65
2022/12/06 01:00:45;;;;;;;22.27;14.57;;;1.40;99.90;;;;;;5061145;28;20875;-66
2022/12/06 01:03:13;;;;;;;21.57;13.33;;;1.40;99.90;;;;;;5061073;28;20463;-67
2022/12/06 01:05:41;;;;;;;23.80;13.30;;;1.40;99.90;;;;;;5060544;28;20471;-66
2022/12/06 01:08:08;;;;;;;25.20;13.20;;;1.40;99.90;;;;;;5060969;28;20458;-67
2022/12/06 01:10:37;;;;;;;19.50;13.67;;;1.30;99.90;;;;;;5060452;28;20472;-67
2022/12/06 01:13:05;;;;;;;20.77;12.57;;;1.30;99.90;;;;;;5060676;28;20448;-67
2022/12/06 01:15:35;;;;;;;27.07;13.10;;;1.30;99.90;;;;;;5059210;28;20462;-67
2022/12/06 01:18:02;;;;;;;29.47;15.33;;;1.30;99.90;;;;;;5060618;28;20437;-67
2022/12/06 01:20:29;;;;;;;39.53;15.10;;;1.30;99.90;;;;;;5060367;28;20891;-67
2022/12/06 01:22:56;;;;;;;33.20;14.40;;;1.40;99.90;;;;;;5060606;28;20465;-67
2022/12/06 01:25:23;;;;;;;43.63;15.83;;;1.30;99.90;;;;;;5059918;28;20798;-67
2022/12/06 01:27:52;;;;;;;32.60;13.53;;;1.30;99.90;;;;;;5060046;28;20440;-68
2022/12/06 01:30:19;;;;;;;58.10;18.10;;;1.40;99.90;;;;;;5059790;28;20470;-68
2022/12/06 01:32:46;;;;;;;45.27;15.27;;;1.30;99.90;;;;;;5060134;28;20462;-68
2022/12/06 01:35:14;;;;;;;31.57;16.07;;;1.30;99.90;;;;;;5059147;28;20463;-68
2022/12/06 01:37:41;;;;;;;41.20;15.80;;;1.30;99.90;;;;;;5059706;28;20880;-69
2022/12/06 01:40:10;;;;;;;25.23;15.07;;;1.40;99.90;;;;;;5059830;28;20462;-69
2022/12/06 01:42:37;;;;;;;31.03;16.43;;;1.40;99.90;;;;;;5059946;28;20545;-69
2022/12/06 01:45:07;;;;;;;28.60;14.57;;;1.40;99.90;;;;;;5059848;28;20513;-69
2022/12/06 01:47:37;;;;;;;22.13;14.30;;;1.40;99.90;;;;;;5059701;28;20436;-69
2022/12/06 01:50:09;;;;;;;21.13;13.83;;;1.30;99.90;;;;;;5059354;28;20469;-69
2022/12/06 01:52:42;;;;;;;32.80;15.70;;;1.40;99.90;;;;;;5059402;28;20462;-69
2022/12/06 01:55:12;;;;;;;19.60;13.43;;;1.50;99.90;;;;;;5059714;28;20469;-69
2022/12/06 01:57:40;;;;;;;21.17;13.70;;;1.40;99.90;;;;;;5060368;28;20476;-70
2022/12/06 02:00:09;;;;;;;22.07;13.47;;;1.40;99.90;;;;;;5060040;28;20462;-70
2022/12/06 02:02:37;;;;;;;22.87;13.43;;;1.40;99.90;;;;;;5060564;28;20520;-70
2022/12/06 02:05:05;;;;;;;19.43;13.67;;;1.30;99.90;;;;;;5060425;28;20770;-70
2022/12/06 02:07:33;;;;;;;18.90;14.30;;;1.40;99.90;;;;;;5059928;28;20764;-71
2022/12/06 02:10:01;;;;;;;21.80;13.30;;;1.40;99.90;;;;;;5060141;28;20461;-71
2022/12/06 02:12:28;;;;;;;21.83;13.10;;;1.30;99.90;;;;;;5060203;28;20470;-71
2022/12/06 02:14:56;;;;;;;19.57;13.30;;;1.40;99.90;;;;;;5060275;28;20440;-71
2022/12/06 02:17:37;;;;;;;19.20;13.07;;;1.40;99.90;;;;;;5060948;28;20533;-71
2022/12/06 02:20:16;;;;;;;23.50;13.70;;;1.40;99.90;;;;;;5059909;28;20462;-70
2022/12/06 02:23:24;;;;;;;18.00;13.17;;;1.40;99.90;;;;;;5059715;28;20466;-70
2022/12/06 02:26:24;;;;;;;21.60;13.63;;;1.40;99.90;;;;;;5059299;28;20509;-70
2022/12/06 02:29:38;;;;;;;17.67;12.30;;;1.40;99.90;;;;;;5051240;28;20502;-70
2022/12/06 02:32:11;;;;;;;17.57;12.77;;;1.40;99.90;;;;;;5058440;28;20473;-69
2022/12/06 02:34:45;;;;;;;19.37;12.37;;;1.40;99.90;;;;;;5058642;28;20472;-69
2022/12/06 02:37:17;;;;;;;20.60;13.67;;;1.40;99.90;;;;;;5058767;28;20433;-68
2022/12/06 02:39:48;;;;;;;18.77;12.13;;;1.40;99.90;;;;;;5058645;28;20469;-68
2022/12/06 02:42:19;;;;;;;19.17;12.10;;;1.40;99.90;;;;;;5058766;28;20516;-68
2022/12/06 02:44:53;;;;;;;18.17;12.10;;;1.40;99.90;;;;;;5058647;28;20469;-68
2022/12/06 02:47:25;;;;;;;17.93;11.73;;;1.50;99.90;;;;;;5058467;28;20491;-68
2022/12/06 02:49:53;;;;;;;18.27;12.37;;;1.50;99.90;;;;;;5058365;28;20886;-68
2022/12/06 02:52:25;;;;;;;16.03;12.47;;;1.50;99.90;;;;;;5058493;28;20462;-67
2022/12/06 02:54:54;;;;;;;19.87;12.23;;;1.50;99.90;;;;;;5058366;28;20469;-67
2022/12/06 02:57:33;;;;;;;18.60;12.90;;;1.50;99.90;;;;;;5057624;28;20433;-67
2022/12/06 03:00:00;;;;;;;17.57;13.17;;;1.50;99.90;;;;;;5057636;28;20879;-67
2022/12/06 03:02:29;;;;;;;19.20;13.73;;;1.50;99.90;;;;;;5057966;28;20466;-67
2022/12/06 03:05:09;;;;;;;20.70;13.17;;;1.50;99.90;;;;;;5058265;28;20539;-67
2022/12/06 03:07:42;;;;;;;17.60;12.87;;;1.50;99.90;;;;;;5057967;28;20519;-67
2022/12/06 03:10:26;;;;;;;19.20;13.30;;;1.50;99.90;;;;;;5058228;28;20468;-66
2022/12/06 03:13:01;;;;;;;20.33;13.47;;;1.50;99.90;;;;;;5057954;28;20466;-66
2022/12/06 03:15:36;;;;;;;24.50;14.40;;;1.50;99.90;;;;;;5058406;28;20485;-66
2022/12/06 03:18:11;;;;;;;23.27;13.60;;;1.50;99.90;;;;;;5058200;28;20458;-66
2022/12/06 03:20:44;;;;;;;25.43;14.90;;;1.50;99.90;;;;;;5057899;28;20447;-65
2022/12/06 03:23:14;;;;;;;24.87;14.53;;;1.50;99.90;;;;;;5057830;28;20467;-66
2022/12/06 03:25:43;;;;;;;20.20;13.20;;;1.50;99.90;;;;;;5056992;28;20494;-66
2022/12/06 03:28:13;;;;;;;20.80;13.37;;;1.50;99.90;;;;;;5056672;28;20445;-66
2022/12/06 03:30:49;;;;;;;30.53;12.57;;;1.50;99.90;;;;;;5057779;28;20447;-66
2022/12/06 03:33:26;;;;;;;25.57;13.57;;;1.50;99.90;;;;;;5057627;28;20470;-66
2022/12/06 03:36:00;;;;;;;29.40;13.40;;;1.50;99.90;;;;;;5057749;28;20938;-66
2022/12/06 03:38:35;;;;;;;18.13;12.53;;;1.50;99.90;;;;;;5057728;28;20722;-66
2022/12/06 03:41:12;;;;;;;27.17;13.70;;;1.50;99.90;;;;;;5057751;28;20860;-66
2022/12/06 03:43:45;;;;;;;25.60;14.00;;;1.50;99.90;;;;;;5057469;28;20469;-66
2022/12/06 03:46:17;;;;;;;26.47;13.53;;;1.50;99.90;;;;;;5057724;28;20514;-66
2022/12/06 03:48:54;;;;;;;26.10;13.00;;;1.50;99.90;;;;;;5057396;28;20562;-66
2022/12/06 03:51:29;;;;;;;22.63;13.10;;;1.60;99.90;;;;;;5057801;28;20512;-66
2022/12/06 03:54:07;;;;;;;25.43;13.03;;;1.60;99.90;;;;;;5057568;28;20918;-66
2022/12/06 03:56:42;;;;;;;28.30;13.50;;;1.60;99.90;;;;;;5057648;28;20558;-66
2022/12/06 03:59:10;;;;;;;31.00;13.80;;;1.60;99.90;;;;;;5057367;28;20829;-65
2022/12/06 04:01:38;;;;;;;26.10;13.43;;;1.60;99.90;;;;;;5057479;28;20452;-65
2022/12/06 04:04:07;;;;;;;22.57;13.87;;;1.50;99.90;;;;;;5057780;28;20462;-65
2022/12/06 04:06:34;;;;;;;25.80;13.00;;;1.50;99.90;;;;;;5056971;28;20536;-65
2022/12/06 04:11:42;;;;;;;37.33;14.13;;;1.50;99.90;;;;;;5055917;28;20447;-65
2022/12/06 04:14:09;;;;;;;25.20;12.93;;;1.50;99.90;;;;;;5057065;28;20724;-65
2022/12/06 04:19:22;;;;;;;25.83;13.23;;;1.50;99.90;;;;;;5059399;28;20437;-65
2022/12/06 04:24:33;;;;;;;25.13;13.30;;;1.50;99.90;;;;;;5060480;28;20468;-66
2022/12/06 04:28:40;;;;;;;34.33;15.63;;;1.60;99.90;;;;;;5061009;28;20469;-66
2022/12/06 04:40:48;;;;;;;25.17;14.60;;;1.50;99.90;;;;;;5060805;28;20519;-65
2022/12/06 04:46:00;;;;;;;32.10;14.70;;;1.60;99.90;;;;;;5060061;28;20477;-65
2022/12/06 04:48:27;;;;;;;28.67;14.03;;;1.60;99.90;;;;;;5060469;28;20462;-65
2022/12/06 04:50:55;;;;;;;23.40;15.10;;;1.60;99.90;;;;;;5060671;28;20469;-65
2022/12/06 04:53:22;;;;;;;34.83;14.83;;;1.60;99.90;;;;;;5060710;28;20494;-65
2022/12/06 04:55:50;;;;;;;34.90;13.83;;;1.60;99.90;;;;;;5060330;28;20469;-65
2022/12/06 04:58:17;;;;;;;24.20;14.27;;;1.70;99.90;;;;;;5060346;28;20451;-65
2022/12/06 05:00:45;;;;;;;34.47;14.50;;;1.60;99.90;;;;;;5060374;28;20472;-65
2022/12/06 05:03:13;;;;;;;32.60;15.47;;;1.60;99.90;;;;;;5060536;28;20523;-65
2022/12/06 05:05:41;;;;;;;25.13;14.00;;;1.60;99.90;;;;;;5059874;28;20465;-65
2022/12/06 05:08:10;;;;;;;28.53;15.90;;;1.60;99.90;;;;;;5060523;28;20889;-65
2022/12/06 05:10:37;;;;;;;25.00;14.63;;;1.70;99.90;;;;;;5060537;28;20888;-65
2022/12/06 05:13:04;;;;;;;37.40;16.33;;;1.70;99.90;;;;;;5060321;28;20441;-64
2022/12/06 05:15:32;;;;;;;29.50;15.43;;;1.70;99.90;;;;;;5059636;28;20477;-64
2022/12/06 05:17:59;;;;;;;28.50;16.37;;;1.70;99.90;;;;;;5060149;28;20738;-64
2022/12/06 05:20:26;;;;;;;59.17;18.20;;;1.70;99.90;;;;;;5059938;28;20572;-64
2022/12/06 05:22:54;;;;;;;32.60;16.50;;;1.70;99.90;;;;;;5060042;28;20470;-64
2022/12/06 05:25:22;;;;;;;34.80;15.33;;;1.70;99.90;;;;;;5059501;28;20490;-64
2022/12/06 05:27:50;;;;;;;41.43;18.20;;;1.70;99.90;;;;;;5059872;28;20490;-64
2022/12/06 05:30:17;;;;;;;30.90;15.80;;;1.70;99.90;;;;;;5058036;28;20486;-64
2022/12/06 05:32:44;;;;;;;29.73;16.03;;;1.70;99.90;;;;;;5059924;28;20463;-64
2022/12/06 05:35:11;;;;;;;29.37;17.00;;;1.70;99.90;;;;;;5059135;28;20445;-64
2022/12/06 05:37:38;;;;;;;30.10;15.60;;;1.80;99.90;;;;;;5059337;28;20458;-64
2022/12/06 05:40:07;;;;;;;34.73;14.90;;;1.80;99.90;;;;;;5059525;28;20462;-64
2022/12/06 05:42:36;;;;;;;38.47;17.07;;;1.70;99.90;;;;;;5059499;28;20462;-63
2022/12/06 05:45:04;;;;;;;44.77;16.83;;;1.80;99.90;;;;;;5059628;28;20535;-64
2022/12/06 05:47:31;;;;;;;39.10;15.43;;;1.80;99.90;;;;;;5058911;28;20490;-63
2022/12/06 05:49:58;;;;;;;23.33;15.30;;;1.70;99.90;;;;;;5059206;28;20462;-63
2022/12/06 05:52:26;;;;;;;25.53;15.03;;;1.70;99.90;;;;;;5058122;28;20466;-63
2022/12/06 05:54:53;;;;;;;24.40;14.93;;;1.70;99.90;;;;;;5057840;28;20485;-63
2022/12/06 05:57:20;;;;;;;38.37;16.93;;;1.80;99.90;;;;;;5057766;28;20439;-63
2022/12/06 05:59:48;;;;;;;34.07;15.60;;;1.70;99.90;;;;;;5057410;28;20969;-63
2022/12/06 06:02:15;;;;;;;35.33;15.93;;;1.80;99.90;;;;;;5057434;28;20462;-63
2022/12/06 06:04:42;;;;;;;33.80;16.80;;;1.80;99.90;;;;;;5056509;28;20842;-63
2022/12/06 06:07:09;;;;;;;45.03;17.53;;;1.80;99.90;;;;;;5056986;28;20486;-63
2022/12/06 06:09:37;;;;;;;49.73;19.07;;;1.80;99.90;;;;;;5056892;28;20782;-63
2022/12/06 06:12:04;;;;;;;28.50;17.00;;;1.80;99.90;;;;;;5058052;28;20734;-63
2022/12/06 06:14:31;;;;;;;39.53;19.03;;;1.80;99.90;;;;;;5058325;28;20462;-62
2022/12/06 06:17:00;;;;;;;46.40;18.40;;;1.80;99.90;;;;;;5056430;28;20436;-63
2022/12/06 06:19:27;;;;;;;48.80;17.50;;;1.90;99.90;;;;;;5037772;28;20451;-63
2022/12/06 06:21:54;;;;;;;28.60;17.03;;;1.90;99.90;;;;;;5037510;28;20437;-63
2022/12/06 06:24:22;;;;;;;28.77;16.73;;;1.80;99.90;;;;;;5042992;28;20493;-63
2022/12/06 06:26:49;;;;;;;40.87;16.50;;;2.00;99.90;;;;;;5057422;28;20529;-63
2022/12/06 06:29:16;;;;;;;44.43;18.23;;;2.10;99.90;;;;;;5056703;28;20473;-63
2022/12/06 06:31:43;;;;;;;35.93;17.30;;;2.10;99.90;;;;;;5056006;28;20429;-63
2022/12/06 06:34:12;;;;;;;39.23;17.57;;;2.10;99.90;;;;;;5057752;28;20604;-62
2022/12/06 06:36:39;;;;;;;31.47;17.47;;;2.00;99.90;;;;;;5056809;28;20458;-63
2022/12/06 06:39:06;;;;;;;32.27;18.20;;;2.00;99.90;;;;;;5056373;28;20462;-63
2022/12/06 06:41:33;;;;;;;46.97;19.97;;;2.10;99.90;;;;;;5055068;28;20444;-62
2022/12/06 06:44:00;;;;;;;59.57;20.33;;;2.20;99.90;;;;;;5057217;28;20429;-60
2022/12/06 06:46:27;;;;;;;49.37;20.20;;;2.20;99.90;;;;;;5056837;28;20447;-57
2022/12/06 06:48:54;;;;;;;51.03;19.23;;;2.10;99.90;;;;;;5057459;28;20466;-62
2022/12/06 06:51:23;;;;;;;67.43;20.43;;;2.10;99.90;;;;;;5058100;28;20439;-62
2022/12/06 06:53:50;;;;;;;48.97;20.20;;;2.10;99.90;;;;;;5058110;28;20881;-60
2022/12/06 06:56:18;;;;;;;75.57;21.73;;;2.10;99.90;;;;;;5057921;28;20469;-59
2022/12/06 06:58:45;;;;;;;37.13;18.00;;;2.10;99.90;;;;;;5058083;28;20447;-60
2022/12/06 07:01:17;;;;;;;45.07;18.50;;;2.10;99.90;;;;;;5057546;28;20469;-59
2022/12/06 07:03:45;;;;;;;45.67;18.70;;;2.10;99.90;;;;;;5057925;28;20808;-61
2022/12/06 07:06:12;;;;;;;75.77;20.73;;;2.10;99.90;;;;;;5057847;28;20460;-62
2022/12/06 07:08:41;;;;;;;63.40;20.07;;;2.10;99.90;;;;;;5057644;28;20494;-60
2022/12/06 07:11:09;;;;;;;81.03;23.63;;;2.10;99.90;;;;;;5057375;28;20936;-62
2022/12/06 07:13:37;;;;;;;28.70;17.60;;;2.10;99.90;;;;;;5057888;28;20723;-62
2022/12/06 07:16:06;;;;;;;41.63;19.17;;;2.10;99.90;;;;;;5057855;28;20448;-61
2022/12/06 07:18:33;;;;;;;39.70;18.20;;;2.10;99.90;;;;;;5057762;28;20888;-63
2022/12/06 07:21:03;;;;;;;45.33;18.77;;;2.10;99.90;;;;;;5057785;28;20451;-63
2022/12/06 07:23:30;;;;;;;59.20;20.07;;;2.10;99.90;;;;;;5057795;28;20486;-62
2022/12/06 07:26:05;;;;;;;53.70;19.70;;;2.10;99.90;;;;;;5057181;28;20941;-62
2022/12/06 07:28:32;;;;;;;73.80;19.77;;;2.10;99.90;;;;;;5057370;28;20472;-62
2022/12/06 07:31:07;;;;;;;64.17;20.63;;;2.10;99.90;;;;;;5057759;28;20464;-62
2022/12/06 07:33:34;;;;;;;67.87;22.03;;;2.10;99.90;;;;;;5057610;28;20465;-62
2022/12/06 07:36:01;;;;;;;53.67;19.40;;;2.10;99.90;;;;;;5057229;28;20467;-61
2022/12/06 07:38:28;;;;;;;40.17;19.33;;;2.20;99.90;;;;;;5057273;28;20451;-62
2022/12/06 07:41:00;;;;;;;39.70;19.23;;;2.10;99.90;;;;;;5057632;28;20441;-62
2022/12/06 07:46:13;;;;;;;35.67;17.80;;;2.10;99.90;;;;;;5056730;28;20420;-62
2022/12/06 07:48:40;;;;;;;33.63;17.90;;;2.20;99.90;;;;;;5056486;28;20472;-61
2022/12/06 07:51:08;;;;;;;43.43;18.20;;;2.20;99.90;;;;;;5057365;28;20466;-62
2022/12/06 07:53:35;;;;;;;37.40;17.87;;;2.20;99.90;;;;;;5057419;28;20466;-63
2022/12/06 07:56:07;;;;;;;45.30;19.40;;;2.20;99.90;;;;;;5057085;28;20462;-62
2022/12/06 07:58:35;;;;;;;33.80;18.60;;;2.20;99.90;;;;;;5056712;28;20495;-62
2022/12/06 08:01:03;;;;;;;49.23;23.63;;;2.20;99.90;;;;;;5057064;28;20429;-62
2022/12/06 08:03:31;;;;;;;44.00;23.57;;;2.20;99.90;;;;;;5055335;28;20463;-62
2022/12/06 08:05:58;;;;;;;36.00;20.43;;;2.30;99.90;;;;;;5056752;28;20540;-61
2022/12/06 08:08:25;;;;;;;39.93;18.70;;;2.30;99.90;;;;;;5056806;28;20917;-63
2022/12/06 08:10:52;;;;;;;40.73;19.63;;;2.30;99.90;;;;;;5057188;28;20898;-63
2022/12/06 08:13:19;;;;;;;36.23;17.50;;;2.30;99.90;;;;;;5056706;28;20469;-63
2022/12/06 08:15:48;;;;;;;41.90;19.97;;;2.30;99.90;;;;;;5055632;28;20454;-62
2022/12/06 08:18:15;;;;;;;41.70;19.30;;;2.30;99.90;;;;;;5045904;28;20456;-63
2022/12/06 08:20:42;;;;;;;38.80;20.77;;;2.30;99.90;;;;;;5045508;28;20888;-63
2022/12/06 08:23:09;;;;;;;43.50;20.80;;;2.30;99.90;;;;;;5044370;28;20498;-63
2022/12/06 08:25:36;;;;;;;37.97;20.40;;;2.30;99.90;;;;;;5049810;28;20486;-63
2022/12/06 08:28:04;;;;;;;33.20;19.37;;;2.30;99.90;;;;;;5048676;28;20987;-63
2022/12/06 08:30:31;;;;;;;39.43;20.43;;;2.30;99.90;;;;;;5039063;28;20460;-63
2022/12/06 08:32:59;;;;;;;40.80;22.97;;;2.30;99.90;;;;;;5039851;28;20463;-63
2022/12/06 08:35:27;;;;;;;53.17;27.73;;;2.30;99.90;;;;;;5054333;28;20465;-63
2022/12/06 08:37:54;;;;;;;37.87;20.90;;;2.30;99.90;;;;;;5053820;28;20556;-63
2022/12/06 08:40:21;;;;;;;35.27;20.13;;;2.30;99.90;;;;;;5053365;28;20454;-63
2022/12/06 08:42:48;;;;;;;41.57;20.20;;;2.30;99.90;;;;;;5054489;28;20512;-63
2022/12/06 08:45:15;;;;;;;40.10;19.10;;;2.30;99.90;;;;;;5055506;28;20469;-61
2022/12/06 08:47:42;;;;;;;42.90;20.53;;;2.30;99.90;;;;;;5055325;28;20490;-63
2022/12/06 08:50:11;;;;;;;63.67;23.23;;;2.40;99.90;;;;;;5054921;28;20472;-63
2022/12/06 08:52:38;;;;;;;74.70;23.80;;;2.40;99.90;;;;;;5055410;28;20466;-63
2022/12/06 08:55:07;;;;;;;119.83;28.77;;;2.40;99.90;;;;;;5055580;28;20473;-63
2022/12/06 08:57:34;;;;;;;108.67;26.50;;;2.40;99.90;;;;;;5055134;28;20884;-63
2022/12/06 09:00:01;;;;;;;93.83;24.20;;;2.40;99.90;;;;;;5055329;28;20460;-63
2022/12/06 09:02:28;;;;;;;110.07;26.93;;;2.30;99.90;;;;;;5055408;28;20462;-63
2022/12/06 09:04:55;;;;;;;82.83;24.17;;;2.40;99.90;;;;;;5057132;28;20472;-63
2022/12/06 09:07:25;;;;;;;41.07;20.23;;;2.40;99.90;;;;;;5060348;28;20494;-63
2022/12/06 09:09:53;;;;;;;55.77;22.43;;;2.40;99.90;;;;;;5060089;28;20500;-63
2022/12/06 09:12:20;;;;;;;64.10;23.33;;;2.40;99.90;;;;;;5059282;28;20743;-63
2022/12/06 09:14:48;;;;;;;57.00;24.23;;;2.50;99.90;;;;;;5059112;28;20469;-63
2022/12/06 09:17:15;;;;;;;42.07;21.70;;;2.50;99.90;;;;;;5057868;28;20487;-62
2022/12/06 09:19:42;;;;;;;42.07;20.03;;;2.50;99.90;;;;;;5060108;28;20880;-62
2022/12/06 09:22:09;;;;;;;43.43;20.87;;;2.50;99.90;;;;;;5060105;28;20484;-62
2022/12/06 09:24:38;;;;;;;46.87;20.20;;;2.50;99.90;;;;;;5059823;28;20920;-62
2022/12/06 09:27:05;;;;;;;37.07;18.07;;;2.60;99.90;;;;;;5060057;28;20461;-60
2022/12/06 09:29:34;;;;;;;42.27;18.67;;;2.60;99.90;;;;;;5059546;28;20458;-61
2022/12/06 09:32:01;;;;;;;35.60;16.33;;;2.70;99.90;;;;;;5059922;28;20481;-62
2022/12/06 09:34:28;;;;;;;32.13;16.63;;;2.70;99.90;;;;;;5059673;28;20462;-61
2022/12/06 09:37:02;;;;;;;47.83;19.07;;;2.70;99.90;;;;;;5060108;28;20463;-60
2022/12/06 09:39:34;;;;;;;37.17;17.80;;;2.80;99.90;;;;;;5059901;28;20458;-62
2022/12/06 09:42:39;;;;;;;29.33;16.53;;;2.80;99.90;;;;;;5059711;28;20463;-61
2022/12/06 09:45:38;;;;;;;29.17;15.63;;;2.80;99.90;;;;;;5060079;28;20863;-62
2022/12/06 09:48:28;;;;;;;27.87;15.90;;;2.90;99.90;;;;;;5052292;28;20464;-63
2022/12/06 09:51:09;;;;;;;28.67;16.40;;;2.90;99.90;;;;;;5056752;28;20448;-62
2022/12/06 09:53:51;;;;;;;30.37;16.83;;;2.90;99.90;;;;;;5058889;28;20466;-63
2022/12/06 09:56:25;;;;;;;32.40;16.50;;;2.90;99.90;;;;;;5059546;28;20470;-63
2022/12/06 09:59:07;;;;;;;28.53;16.10;;;2.80;99.90;;;;;;5059487;28;20815;-63
2022/12/06 10:01:44;;;;;;;27.33;16.20;;;2.90;99.90;;;;;;5059162;28;20466;-63
2022/12/06 10:04:38;;;;;;;28.53;16.93;;;2.90;99.90;;;;;;5059333;28;20899;-63
2022/12/06 10:07:11;;;;;;;23.33;15.57;;;2.90;99.90;;;;;;5059599;28;20490;-63
2022/12/06 10:09:56;;;;;;;26.37;16.67;;;2.90;99.90;;;;;;5058454;28;20512;-64
2022/12/06 10:12:34;;;;;;;20.43;13.20;;;2.90;99.90;;;;;;5058105;28;20907;-64
2022/12/06 10:15:16;;;;;;;19.73;13.90;;;3.00;99.90;;;;;;5058924;28;20504;-64
2022/12/06 10:17:55;;;;;;;19.00;13.27;;;2.90;99.90;;;;;;5058600;28;20691;-65
2022/12/06 10:20:35;;;;;;;23.03;15.40;;;2.90;99.90;;;;;;5058507;28;20465;-65
2022/12/06 10:23:16;;;;;;;20.53;13.40;;;2.90;99.90;;;;;;5058685;28;20486;-65
2022/12/06 10:25:54;;;;;;;21.10;13.83;;;2.90;99.90;;;;;;5058408;28;20515;-64
2022/12/06 10:28:30;;;;;;;17.73;11.17;;;2.90;99.90;;;;;;5057126;28;20563;-64
2022/12/06 10:31:08;;;;;;;16.73;11.30;;;2.90;99.90;;;;;;5056617;28;20469;-65
2022/12/06 10:33:49;;;;;;;16.47;11.97;;;2.90;99.90;;;;;;5057113;28;20451;-65
2022/12/06 10:36:20;;;;;;;15.70;12.03;;;3.00;99.90;;;;;;5056887;28;20462;-65
2022/12/06 10:38:53;;;;;;;15.73;11.47;;;2.90;99.90;;;;;;5056843;28;20873;-66
2022/12/06 10:41:25;;;;;;;17.60;11.30;;;2.90;99.90;;;;;;5057124;28;20493;-66
2022/12/06 10:43:58;;;;;;;15.10;11.60;;;2.90;99.90;;;;;;5058443;28;20470;-66
2022/12/06 10:49:25;;;;;;;17.13;11.70;;;2.90;99.90;;;;;;5058350;28;20561;-67
2022/12/06 10:51:58;;;;;;;15.77;10.67;;;2.90;99.90;;;;;;5058507;28;20759;-66
2022/12/06 10:54:33;;;;;;;18.60;12.43;;;2.90;99.90;;;;;;5058145;28;20471;-67
2022/12/06 10:57:06;;;;;;;16.73;12.43;;;3.00;99.90;;;;;;5037115;28;20469;-67
2022/12/06 10:59:39;;;;;;;20.07;12.30;;;3.00;99.90;;;;;;5037161;28;20460;-67
2022/12/06 11:02:23;;;;;;;18.83;12.47;;;3.00;99.90;;;;;;5037767;28;20474;-67
2022/12/06 11:04:52;;;;;;;21.97;13.87;;;3.10;99.90;;;;;;5052665;28;20517;-65
2022/12/06 11:07:23;;;;;;;17.93;13.10;;;3.10;99.90;;;;;;5057878;28;20739;-65
2022/12/06 11:09:53;;;;;;;16.43;12.10;;;3.20;99.90;;;;;;5058451;28;20584;-65
2022/12/06 11:12:25;;;;;;;20.00;11.40;;;3.20;99.90;;;;;;5058460;28;20443;-65
2022/12/06 11:14:55;;;;;;;15.83;11.83;;;3.10;99.90;;;;;;5057010;28;20452;-65
2022/12/06 11:17:29;;;;;;;12.67;10.17;;;3.20;99.90;;;;;;5056901;28;20440;-65
2022/12/06 11:20:01;;;;;;;14.10;11.10;;;3.20;99.90;;;;;;5056210;28;20439;-66
2022/12/06 11:22:38;;;;;;;13.20;9.90;;;3.20;99.90;;;;;;5055030;28;20467;-66
2022/12/06 11:25:16;;;;;;;13.27;10.13;;;3.30;99.90;;;;;;5035784;28;20480;-67
2022/12/06 11:27:49;;;;;;;12.47;10.20;;;3.30;99.90;;;;;;5035159;28;20455;-67
2022/12/06 11:30:19;;;;;;;16.63;11.57;;;3.40;99.90;;;;;;5045202;28;20429;-67
2022/12/06 11:32:51;;;;;;;16.20;12.60;;;3.50;99.90;;;;;;5057593;28;20458;-67
2022/12/06 11:35:21;;;;;;;15.70;12.10;;;3.70;99.90;;;;;;5054595;28;20430;-67
2022/12/06 11:37:53;;;;;;;16.20;12.50;;;3.80;99.90;;;;;;5047785;28;20451;-67
2022/12/06 11:40:24;;;;;;;20.43;14.77;;;3.90;99.90;;;;;;5055352;28;20451;-67
2022/12/06 11:42:52;;;;;;;19.13;15.90;;;3.90;99.90;;;;;;5057972;28;20465;-67
2022/12/06 11:45:24;;;;;;;23.10;15.67;;;4.00;99.90;;;;;;5057230;28;20493;-68
2022/12/06 11:47:55;;;;;;;24.27;17.30;;;3.90;99.90;;;;;;5056274;28;20450;-68
2022/12/06 11:50:24;;;;;;;22.37;16.60;;;3.80;99.90;;;;;;5057786;28;20429;-69
2022/12/06 11:52:58;;;;;;;23.33;16.67;;;3.80;99.90;;;;;;5057409;28;20437;-69
2022/12/06 11:55:28;;;;;;;27.10;18.17;;;3.60;99.90;;;;;;5057435;28;20474;-70
2022/12/06 11:58:02;;;;;;;26.87;17.90;;;3.60;99.90;;;;;;5057258;28;20448;-70
2022/12/06 12:00:29;;;;;;;24.53;17.77;;;3.50;99.90;;;;;;5057422;28;20473;-70
2022/12/06 12:02:58;;;;;;;26.70;19.07;;;3.50;99.90;;;;;;5057262;28;20437;-71
2022/12/06 12:05:29;;;;;;;25.50;18.17;;;3.50;99.90;;;;;;5057339;28;20462;-70
2022/12/06 12:07:59;;;;;;;23.47;17.90;;;3.60;99.90;;;;;;5056433;28;20466;-71
2022/12/06 12:10:34;;;;;;;22.60;17.80;;;3.60;99.90;;;;;;5057250;28;20441;-70
2022/12/06 12:16:15;;;;;;;20.70;16.00;;;3.70;99.90;;;;;;5056609;28;20412;-72
2022/12/06 12:18:51;;;;;;;23.00;17.40;;;3.70;99.90;;;;;;5057431;28;20883;-73
2022/12/06 12:21:33;;;;;;;25.80;17.70;;;3.80;99.90;;;;;;5057366;28;20891;-73
2022/12/06 12:24:00;;;;;;;19.57;15.23;;;3.80;99.90;;;;;;5057126;28;20497;-71
2022/12/06 12:26:37;;;;;;;20.43;14.43;;;3.90;99.90;;;;;;5057148;28;20761;-71
2022/12/06 12:29:14;;;;;;;18.90;14.50;;;4.00;99.90;;;;;;5056505;28;20487;-71
2022/12/06 12:31:51;;;;;;;16.83;13.77;;;4.00;99.90;;;;;;5036108;28;20746;-70
2022/12/06 12:34:22;;;;;;;15.10;11.97;;;4.00;99.90;;;;;;5036762;28;20509;-70
2022/12/06 12:36:51;;;;;;;16.20;12.33;;;4.00;99.90;;;;;;5037327;28;20449;-70
2022/12/06 12:39:30;;;;;;;17.17;12.47;;;4.10;99.90;;;;;;5036970;28;20878;-70
2022/12/06 12:41:57;;;;;;;17.57;11.60;;;4.10;99.90;;;;;;5040987;28;20489;-70
2022/12/06 12:44:28;;;;;;;14.70;10.90;;;4.20;99.90;;;;;;5041388;28;20470;-70
2022/12/06 12:46:57;;;;;;;17.33;10.40;;;4.20;99.90;;;;;;5041596;28;20530;-70
2022/12/06 12:49:29;;;;;;;11.10;8.60;;;4.20;99.90;;;;;;5041397;28;20490;-70
2022/12/06 12:52:00;;;;;;;10.97;9.10;;;4.20;99.90;;;;;;5040524;28;20482;-70
2022/12/06 12:54:32;;;;;;;12.63;9.83;;;4.20;99.90;;;;;;5040605;28;20462;-71
2022/12/06 12:57:03;;;;;;;10.80;8.40;;;4.20;99.90;;;;;;5040486;28;20466;-71
2022/12/06 12:59:37;;;;;;;13.70;8.80;;;4.30;99.90;;;;;;5040000;28;20446;-71
2022/12/06 13:02:14;;;;;;;13.13;8.23;;;4.40;99.90;;;;;;5060560;28;20466;-71
2022/12/06 13:04:45;;;;;;;10.47;8.00;;;4.50;99.90;;;;;;5060211;28;20462;-72
2022/12/06 13:07:21;;;;;;;9.23;7.90;;;4.60;99.90;;;;;;5060381;28;20462;-73
2022/12/06 13:09:57;;;;;;;12.50;9.30;;;4.60;99.90;;;;;;5059406;28;20934;-73
2022/12/06 13:12:29;;;;;;;10.70;8.53;;;4.50;99.90;;;;;;5060416;28;20705;-73
2022/12/06 13:15:01;;;;;;;15.53;9.07;;;4.40;99.90;;;;;;5060040;28;20462;-73
2022/12/06 13:17:32;;;;;;;13.17;9.40;;;4.40;99.90;;;;;;5060143;28;20462;-72
2022/12/06 13:20:02;;;;;;;10.50;9.40;;;4.40;99.90;;;;;;5059802;28;20457;-72
2022/12/06 13:22:34;;;;;;;13.80;10.83;;;4.40;99.90;;;;;;5059986;28;20467;-72
2022/12/06 13:25:03;;;;;;;11.57;9.93;;;4.40;99.90;;;;;;5059648;28;20486;-71
2022/12/06 13:27:35;;;;;;;13.00;11.30;;;4.30;99.90;;;;;;5059579;28;20876;-71